Address 0x79c9ff8f35c88a9aea1d1f3d17b3fa2eefe2264c 4

 
 
Txn Hash Method
Block
From
To
Value [Txn Fee]
0x161cecb9436bf3db243d570bab8e7caa6897c31892128568adbcab2241fe40f8Exec Transaction314045592022-08-01 19:10:328 days 15 hrs ago0x79c9ff8f35c88a9aea1d1f3d17b3fa2eefe2264cOUT 0xd6ed746a27dc15dffa1bf71a548b8c8d49620ca10 MATIC0.004905513201 40.100000013
0xb3720bea519a4e2f0729169914c85962b98b1e2f4baf7ce06d0cbe3d136eb2f4Deposit309727382022-07-21 11:04:3119 days 23 hrs ago0x79c9ff8f35c88a9aea1d1f3d17b3fa2eefe2264cOUT 0x1ec31abe326bc850594542dd6ac1c172a29f58ae0 MATIC0.006250386748 32.630575561
0xad28283d6857fb1421d84ed310ed28a5ca6e28eddf264ed4a55a1b6f9ae48eacApprove309727282022-07-21 11:04:0719 days 23 hrs ago0x79c9ff8f35c88a9aea1d1f3d17b3fa2eefe2264cOUT MetaSoccer: MSU Token0 MATIC0.001028970669 35.00971962
0x2a011783f509ce0b822b6ad733c183482fac47d6af8fd0e63503289ef0f7633eWithdraw309726862022-07-21 11:02:4319 days 23 hrs ago0x79c9ff8f35c88a9aea1d1f3d17b3fa2eefe2264cOUT 0x3fa7fcc915d3d95a3b238434b83d814f632bc74a0 MATIC0.005664915076 33.409107442
0x55976c2a01f5e9aecf5a4487722865c4c96cd0db24ae7d4acd7845663655da0fExec Transaction309639312022-07-21 5:16:5820 days 5 hrs ago0x79c9ff8f35c88a9aea1d1f3d17b3fa2eefe2264cOUT 0xd6ed746a27dc15dffa1bf71a548b8c8d49620ca10 MATIC0.0034754007 33.1
0xb83572cc2ec19d464307cec730facf11eea79646e12de516621eab0029d3aee5Deposit308163882022-07-17 8:21:2824 days 1 hr ago0x79c9ff8f35c88a9aea1d1f3d17b3fa2eefe2264cOUT 0x1ec31abe326bc850594542dd6ac1c172a29f58ae0 MATIC0.005925378797 31.369800081
0x8e6d070f1644518ad917492570b27a800b9d530738f60297fa4548d33688059dApprove308163812022-07-17 8:21:0624 days 1 hr ago0x79c9ff8f35c88a9aea1d1f3d17b3fa2eefe2264cOUT MetaSoccer: MSU Token0 MATIC0.000898042007 30.555000078
0x9d77116259b7834e2e48f01f58392df7c34cff66255e39b36f7eccf12184d790Exec Transaction308156492022-07-17 7:51:4024 days 2 hrs ago0x79c9ff8f35c88a9aea1d1f3d17b3fa2eefe2264cOUT 0xd6ed746a27dc15dffa1bf71a548b8c8d49620ca10 MATIC0.0075643761 33.1
0x602cdfb081daa308848b9c5ca5af6253f2a6845907fb19fc7d722488f513e1a7Exec Transaction308156322022-07-17 7:51:0624 days 2 hrs ago0x79c9ff8f35c88a9aea1d1f3d17b3fa2eefe2264cOUT 0xd6ed746a27dc15dffa1bf71a548b8c8d49620ca10 MATIC0.0077138557 33.1
0x6e9dcbb13f928769257d51b7765c552daafefdee1818453b7274820811bda4ffExec Transaction304440602022-07-07 13:10:2433 days 21 hrs ago0x79c9ff8f35c88a9aea1d1f3d17b3fa2eefe2264cOUT 0xd6ed746a27dc15dffa1bf71a548b8c8d49620ca10 MATIC0.004415752 36.1
0x4bd0b554f63933fc780434f5c514fb6659e097e404034b3c7a1ae331fbc63166Deposit302156682022-07-01 13:57:5639 days 20 hrs ago0x79c9ff8f35c88a9aea1d1f3d17b3fa2eefe2264cOUT 0x1ec31abe326bc850594542dd6ac1c172a29f58ae0 MATIC0.025457005634 136.655495501
0xaa7059967f303bcf112ae80bcd1f2e4f54fc83975f07408b672ff15a6a5fe87eApprove302156552022-07-01 13:57:3039 days 20 hrs ago0x79c9ff8f35c88a9aea1d1f3d17b3fa2eefe2264cOUT MetaSoccer: MSU Token0 MATIC0.004616368261 157.067410477
0x1c294184881a46aec6adf4d2bd231bac80756273f1eec71e7cc1e5e773b47d52Swap Exact Token...302156162022-07-01 13:56:1239 days 20 hrs ago0x79c9ff8f35c88a9aea1d1f3d17b3fa2eefe2264cOUT SushiSwap: Router0 MATIC0.046612513433 356.329366606
0x9954d65ace78bce2e28be5b4e0d02ef656d0db02b63cec38baed665be562e3f7Deposit301791382022-06-30 14:52:3540 days 19 hrs ago0x79c9ff8f35c88a9aea1d1f3d17b3fa2eefe2264cOUT 0x1ec31abe326bc850594542dd6ac1c172a29f58ae0 MATIC0.010015959194 53.149724034
0x31d45742f07db9e4e2b8cd8e1976ae4ab30b7890f17d870d362ee40cbc787360Approve301791272022-06-30 14:52:0940 days 19 hrs ago0x79c9ff8f35c88a9aea1d1f3d17b3fa2eefe2264cOUT MetaSoccer: MSU Token0 MATIC0.001372348113 46.692800965
0x4c3f111b3fc5744cd7bc09d57fe16a7083cec067f8b065360183633cc131833bWithdraw301764702022-06-30 13:14:2740 days 21 hrs ago0x79c9ff8f35c88a9aea1d1f3d17b3fa2eefe2264cOUT 0x3fa7fcc915d3d95a3b238434b83d814f632bc74a0 MATIC0.00671651408 47.384821091
0x0b423fa9cd66cb51d114137ec98dd0e586654022c20e9eca7f3bfca9b1b92a84Withdraw301764442022-06-30 13:13:3140 days 21 hrs ago0x79c9ff8f35c88a9aea1d1f3d17b3fa2eefe2264cOUT 0x3fa7fcc915d3d95a3b238434b83d814f632bc74a0 MATIC0.006606728491 46.618180154
0x91c4d5fc811c1ee9fd6b1ca5b31886a51252dddc3de37be55b96316c9773dd0eWithdraw301764262022-06-30 13:12:5540 days 21 hrs ago0x79c9ff8f35c88a9aea1d1f3d17b3fa2eefe2264cOUT 0x3fa7fcc915d3d95a3b238434b83d814f632bc74a0 MATIC0.006641176837 46.853318926
0x3644a08e924c53fd580ac3e9b96f852f1f0a7f32313ffe9c26922ba85d5d2f81Withdraw301764052022-06-30 13:12:1340 days 21 hrs ago0x79c9ff8f35c88a9aea1d1f3d17b3fa2eefe2264cOUT 0x3fa7fcc915d3d95a3b238434b83d814f632bc74a0 MATIC0.005266454457 37.15469055
0x78188030c6a4b22fc0f89ef37eb525deaf05c2165dcb8cc596ec0c22c8233c25Withdraw301763752022-06-30 13:11:0940 days 21 hrs ago0x79c9ff8f35c88a9aea1d1f3d17b3fa2eefe2264cOUT 0x3fa7fcc915d3d95a3b238434b83d814f632bc74a0 MATIC0.007265242112 45.741677449
0xf5a336264aa22cc8e6d9b856fa33fb9522d069e6d00fe4cdebfecd94a4d7372fDeposit301760532022-06-30 13:00:0540 days 21 hrs ago0x79c9ff8f35c88a9aea1d1f3d17b3fa2eefe2264cOUT 0x1ec31abe326bc850594542dd6ac1c172a29f58ae0 MATIC0.018460003429 73.123404355
0x378fca0d10636eb6aacb4f3155b46e27d0a5f2854158f1e4ee1e9b800cded6f7Approve301760362022-06-30 12:59:3140 days 21 hrs ago0x79c9ff8f35c88a9aea1d1f3d17b3fa2eefe2264cOUT MetaSoccer: MSU Token0 MATIC0.002165894103 81.452149339
0x376de365aa9af08692fc102a159b87ccf5408c35cae54699967e8c056f517cd9Approve301760062022-06-30 12:58:3140 days 21 hrs ago0x79c9ff8f35c88a9aea1d1f3d17b3fa2eefe2264cOUT MetaSoccer: MSU Token0 MATIC0.006380651118 137.244867144
0xd94c3d6c3180358c356bc293b3a9717f832e2ec0984a96dcc2baf16b418996e6Exec Transaction301439582022-06-29 17:11:0041 days 17 hrs ago0x79c9ff8f35c88a9aea1d1f3d17b3fa2eefe2264cOUT 0x24e2af34971ec6daf4c09f0772f4ccd9047b677d0 MATIC0.005586382826 69.641752601
0x09e40ffe2ec7d6b0a48f58460afe294620e03187f2cd90d4670bd1778881ec0dTransfer301018052022-06-28 15:13:0342 days 19 hrs ago0x79c9ff8f35c88a9aea1d1f3d17b3fa2eefe2264cOUT Maker: Dai Stablecoin0 MATIC0.001873897204 52.92000013
[ Download CSV Export 
Latest 7 internal transactions
Parent Txn Hash Block From To Value
0xc64bca51f308125f09829ed67c23f974e03cab775ddaaacc69417501c92be20e225938672021-12-16 13:55:24236 days 20 hrs ago SushiSwap: Router0x79c9ff8f35c88a9aea1d1f3d17b3fa2eefe2264c276.76094094636553149 MATIC
0x9c423dfdffd1ab4c3942fe35234a90601c5488b8b51dd2a51d5e6c05dd91aa77212825582021-11-12 12:34:21270 days 21 hrs ago 0xd6ed746a27dc15dffa1bf71a548b8c8d49620ca10x79c9ff8f35c88a9aea1d1f3d17b3fa2eefe2264c0.1 MATIC
0x7037c33e4057fb7407aca85f94a44f3739b61c4b4cd7c07fd56ce80ff49bb407206744462021-10-27 17:09:11286 days 17 hrs ago 0xc9e5d1982131abd8e329586fb6bbc5c1dd3939530x79c9ff8f35c88a9aea1d1f3d17b3fa2eefe2264c0.1 MATIC
0x025f855c6063195fba0106efe89063e6f48c2e4e339213d0a1797f50b15f1a3f206740312021-10-27 16:52:15286 days 17 hrs ago 0xf19eda02e5cf627068b3ba0ac05d24a458e4a7de0x79c9ff8f35c88a9aea1d1f3d17b3fa2eefe2264c0.1 MATIC
0x15915ef38dd98c093d3b13d6fb6b83066ba861d4a150c4c6a95828094cfec970206739442021-10-27 16:47:59286 days 17 hrs ago 0xd6ed746a27dc15dffa1bf71a548b8c8d49620ca10x79c9ff8f35c88a9aea1d1f3d17b3fa2eefe2264c0.2 MATIC
0x724a6e55239af618e6eaeaa3794402bfd86c4a95db7cac14f3fa0fb8e5d2ec54206718982021-10-27 15:24:00286 days 18 hrs ago 0xc9e5d1982131abd8e329586fb6bbc5c1dd3939530x79c9ff8f35c88a9aea1d1f3d17b3fa2eefe2264c0.1 MATIC
0x27bab0757a1b17c91bebbfa56b83730a81c8376d7eb39f7e607422d75c31678e204912982021-10-22 15:16:56291 days 19 hrs ago 0xd6ed746a27dc15dffa1bf71a548b8c8d49620ca10x79c9ff8f35c88a9aea1d1f3d17b3fa2eefe2264c0.01 MATIC
[ Download CSV Export 
Loading

Contract Name:
0 MATIC

Compiler Version
0

Optimization Enabled:
0 MATIC

Other Settings:
-NA-
Block Transaction Gas Used Reward
Age Block Fee Address BC Fee Address Voting Power Jailed Incoming
Block Uncle Number Difficulty Gas Used Reward
Loading
Loading
Make sure to use the "Vote Down" button for any spammy posts, and the "Vote Up" for interesting conversations.